sensor_id;sensor_type;location;lat;lon;timestamp;temperature;humidity
33023;DHT22;19390;51.460;5.710;2023-03-04T00:02:11;5.40;1.00
33023;DHT22;19390;51.460;5.710;2023-03-04T00:04:37;5.40;1.00
33023;DHT22;19390;51.460;5.710;2023-03-04T00:07:02;5.40;1.00
33023;DHT22;19390;51.460;5.710;2023-03-04T00:09:28;5.30;1.00
33023;DHT22;19390;51.460;5.710;2023-03-04T00:11:54;5.40;1.00
33023;DHT22;19390;51.460;5.710;2023-03-04T00:14:19;5.30;1.00
33023;DHT22;19390;51.460;5.710;2023-03-04T00:16:45;5.30;1.00
33023;DHT22;19390;51.460;5.710;2023-03-04T00:19:11;5.30;1.00
33023;DHT22;19390;51.460;5.710;2023-03-04T00:21:36;5.30;1.00
33023;DHT22;19390;51.460;5.710;2023-03-04T00:24:02;5.30;1.00
33023;DHT22;19390;51.460;5.710;2023-03-04T00:26:27;5.30;1.00
33023;DHT22;19390;51.460;5.710;2023-03-04T00:28:53;5.30;1.00
33023;DHT22;19390;51.460;5.710;2023-03-04T00:31:19;5.30;1.00
33023;DHT22;19390;51.460;5.710;2023-03-04T00:33:44;5.30;72.90
33023;DHT22;19390;51.460;5.710;2023-03-04T00:36:10;5.30;51.80
33023;DHT22;19390;51.460;5.710;2023-03-04T00:38:36;5.30;99.90
33023;DHT22;19390;51.460;5.710;2023-03-04T00:41:01;5.30;99.90
33023;DHT22;19390;51.460;5.710;2023-03-04T00:43:27;5.30;99.90
33023;DHT22;19390;51.460;5.710;2023-03-04T00:45:54;5.30;99.90
33023;DHT22;19390;51.460;5.710;2023-03-04T00:48:19;5.30;25.30
33023;DHT22;19390;51.460;5.710;2023-03-04T00:50:45;5.30;1.00
33023;DHT22;19390;51.460;5.710;2023-03-04T00:53:10;5.30;1.00
33023;DHT22;19390;51.460;5.710;2023-03-04T00:55:36;5.30;1.00
33023;DHT22;19390;51.460;5.710;2023-03-04T00:58:02;5.40;1.00
33023;DHT22;19390;51.460;5.710;2023-03-04T01:00:28;5.40;1.00
33023;DHT22;19390;51.460;5.710;2023-03-04T01:02:53;5.30;1.00
33023;DHT22;19390;51.460;5.710;2023-03-04T01:05:19;5.30;1.00
33023;DHT22;19390;51.460;5.710;2023-03-04T01:07:45;5.30;1.00
33023;DHT22;19390;51.460;5.710;2023-03-04T01:10:12;5.30;1.00
33023;DHT22;19390;51.460;5.710;2023-03-04T01:12:38;5.30;1.00
33023;DHT22;19390;51.460;5.710;2023-03-04T01:15:08;5.30;1.00
33023;DHT22;19390;51.460;5.710;2023-03-04T01:17:34;5.30;1.00
33023;DHT22;19390;51.460;5.710;2023-03-04T01:20:00;5.30;92.70
33023;DHT22;19390;51.460;5.710;2023-03-04T01:22:26;5.30;99.90
33023;DHT22;19390;51.460;5.710;2023-03-04T01:24:51;5.30;99.90
33023;DHT22;19390;51.460;5.710;2023-03-04T01:27:17;5.30;99.90
33023;DHT22;19390;51.460;5.710;2023-03-04T01:29:43;5.30;99.90
33023;DHT22;19390;51.460;5.710;2023-03-04T01:32:08;5.30;99.90
33023;DHT22;19390;51.460;5.710;2023-03-04T01:34:34;5.30;99.90
33023;DHT22;19390;51.460;5.710;2023-03-04T01:37:00;5.30;1.00
33023;DHT22;19390;51.460;5.710;2023-03-04T01:39:26;5.30;1.00
33023;DHT22;19390;51.460;5.710;2023-03-04T01:41:52;5.30;1.00
33023;DHT22;19390;51.460;5.710;2023-03-04T01:44:18;5.20;1.00
33023;DHT22;19390;51.460;5.710;2023-03-04T01:46:49;5.20;1.00
33023;DHT22;19390;51.460;5.710;2023-03-04T01:49:16;5.20;1.00
33023;DHT22;19390;51.460;5.710;2023-03-04T01:51:43;5.30;1.00
33023;DHT22;19390;51.460;5.710;2023-03-04T01:54:10;5.30;1.00
33023;DHT22;19390;51.460;5.710;2023-03-04T01:56:37;5.30;1.00
33023;DHT22;19390;51.460;5.710;2023-03-04T02:01:32;5.30;1.00
33023;DHT22;19390;51.460;5.710;2023-03-04T02:03:57;5.20;1.00
33023;DHT22;19390;51.460;5.710;2023-03-04T02:06:23;5.30;99.90
33023;DHT22;19390;51.460;5.710;2023-03-04T02:08:49;5.30;99.90
33023;DHT22;19390;51.460;5.710;2023-03-04T02:11:15;5.20;99.90
33023;DHT22;19390;51.460;5.710;2023-03-04T02:13:40;5.30;3.00
33023;DHT22;19390;51.460;5.710;2023-03-04T02:16:06;5.30;1.00
33023;DHT22;19390;51.460;5.710;2023-03-04T02:18:32;5.30;1.00
33023;DHT22;19390;51.460;5.710;2023-03-04T02:26:19;5.30;1.00
33023;DHT22;19390;51.460;5.710;2023-03-04T02:28:46;5.30;14.30
33023;DHT22;19390;51.460;5.710;2023-03-04T02:31:25;5.20;81.90
33023;DHT22;19390;51.460;5.710;2023-03-04T02:33:53;5.20;1.00
33023;DHT22;19390;51.460;5.710;2023-03-04T02:36:21;5.30;1.00
33023;DHT22;19390;51.460;5.710;2023-03-04T02:38:49;5.20;1.00
33023;DHT22;19390;51.460;5.710;2023-03-04T02:41:20;5.30;1.00
33023;DHT22;19390;51.460;5.710;2023-03-04T02:43:48;5.20;99.90
33023;DHT22;19390;51.460;5.710;2023-03-04T02:46:14;5.20;99.90
33023;DHT22;19390;51.460;5.710;2023-03-04T02:48:40;5.20;1.00
33023;DHT22;19390;51.460;5.710;2023-03-04T02:51:05;5.20;99.90
33023;DHT22;19390;51.460;5.710;2023-03-04T02:53:31;5.30;1.00
33023;DHT22;19390;51.460;5.710;2023-03-04T02:55:56;5.20;1.00
33023;DHT22;19390;51.460;5.710;2023-03-04T02:58:22;5.20;1.00
33023;DHT22;19390;51.460;5.710;2023-03-04T03:00:48;5.20;1.00
33023;DHT22;19390;51.460;5.710;2023-03-04T03:03:13;5.20;14.50
33023;DHT22;19390;51.460;5.710;2023-03-04T03:05:39;5.20;99.90
33023;DHT22;19390;51.460;5.710;2023-03-04T03:08:05;5.20;99.90
33023;DHT22;19390;51.460;5.710;2023-03-04T03:10:31;5.20;99.90
33023;DHT22;19390;51.460;5.710;2023-03-04T03:12:57;5.20;1.00
33023;DHT22;19390;51.460;5.710;2023-03-04T03:15:22;5.20;1.00
33023;DHT22;19390;51.460;5.710;2023-03-04T03:17:48;5.20;1.00
33023;DHT22;19390;51.460;5.710;2023-03-04T03:20:15;5.20;1.00
33023;DHT22;19390;51.460;5.710;2023-03-04T03:22:41;5.20;1.00
33023;DHT22;19390;51.460;5.710;2023-03-04T03:25:08;5.20;1.00
33023;DHT22;19390;51.460;5.710;2023-03-04T03:27:34;5.10;99.90
33023;DHT22;19390;51.460;5.710;2023-03-04T03:30:00;5.20;99.90
33023;DHT22;19390;51.460;5.710;2023-03-04T03:32:26;5.20;99.90
33023;DHT22;19390;51.460;5.710;2023-03-04T03:34:52;5.20;99.90
33023;DHT22;19390;51.460;5.710;2023-03-04T03:37:17;5.20;1.00
33023;DHT22;19390;51.460;5.710;2023-03-04T03:39:43;5.20;99.90
33023;DHT22;19390;51.460;5.710;2023-03-04T03:42:09;5.10;1.00
33023;DHT22;19390;51.460;5.710;2023-03-04T03:44:35;5.10;1.00
33023;DHT22;19390;51.460;5.710;2023-03-04T03:47:01;5.10;1.00
33023;DHT22;19390;51.460;5.710;2023-03-04T03:49:26;5.20;1.00
33023;DHT22;19390;51.460;5.710;2023-03-04T03:51:52;5.10;1.00
33023;DHT22;19390;51.460;5.710;2023-03-04T03:54:17;5.20;25.50
33023;DHT22;19390;51.460;5.710;2023-03-04T03:56:43;5.10;99.90
33023;DHT22;19390;51.460;5.710;2023-03-04T03:59:09;5.10;1.00
33023;DHT22;19390;51.460;5.710;2023-03-04T04:01:34;5.10;1.00
33023;DHT22;19390;51.460;5.710;2023-03-04T04:04:00;5.10;1.00
33023;DHT22;19390;51.460;5.710;2023-03-04T04:06:26;5.10;99.90
33023;DHT22;19390;51.460;5.710;2023-03-04T04:08:51;5.20;1.00
33023;DHT22;19390;51.460;5.710;2023-03-04T04:11:17;5.10;1.00
33023;DHT22;19390;51.460;5.710;2023-03-04T04:13:43;5.10;1.00
33023;DHT22;19390;51.460;5.710;2023-03-04T04:16:10;5.20;1.00
33023;DHT22;19390;51.460;5.710;2023-03-04T04:18:36;5.10;99.90
33023;DHT22;19390;51.460;5.710;2023-03-04T04:21:02;5.20;99.90
33023;DHT22;19390;51.460;5.710;2023-03-04T04:23:28;5.10;99.90
33023;DHT22;19390;51.460;5.710;2023-03-04T04:25:55;5.20;99.90
33023;DHT22;19390;51.460;5.710;2023-03-04T04:28:21;5.10;1.00
33023;DHT22;19390;51.460;5.710;2023-03-04T04:30:46;5.10;1.00
33023;DHT22;19390;51.460;5.710;2023-03-04T04:33:12;5.10;1.00
33023;DHT22;19390;51.460;5.710;2023-03-04T04:35:38;5.10;1.00
33023;DHT22;19390;51.460;5.710;2023-03-04T04:38:05;5.10;1.00
33023;DHT22;19390;51.460;5.710;2023-03-04T04:40:31;5.10;1.00
33023;DHT22;19390;51.460;5.710;2023-03-04T04:42:56;5.10;99.90
33023;DHT22;19390;51.460;5.710;2023-03-04T04:45:22;5.10;99.90
33023;DHT22;19390;51.460;5.710;2023-03-04T04:47:52;5.10;99.90
33023;DHT22;19390;51.460;5.710;2023-03-04T04:50:18;5.10;99.90
33023;DHT22;19390;51.460;5.710;2023-03-04T04:52:44;5.10;99.90
33023;DHT22;19390;51.460;5.710;2023-03-04T04:55:10;5.10;99.90
33023;DHT22;19390;51.460;5.710;2023-03-04T04:57:36;5.10;99.90
33023;DHT22;19390;51.460;5.710;2023-03-04T05:00:03;5.10;99.90
33023;DHT22;19390;51.460;5.710;2023-03-04T05:02:29;5.00;99.90
33023;DHT22;19390;51.460;5.710;2023-03-04T05:04:55;5.10;99.90
33023;DHT22;19390;51.460;5.710;2023-03-04T05:07:21;5.10;99.90
33023;DHT22;19390;51.460;5.710;2023-03-04T05:09:47;5.10;99.90
33023;DHT22;19390;51.460;5.710;2023-03-04T05:12:12;5.10;99.90
33023;DHT22;19390;51.460;5.710;2023-03-04T05:14:38;5.10;99.90
33023;DHT22;19390;51.460;5.710;2023-03-04T05:17:04;5.10;99.90
33023;DHT22;19390;51.460;5.710;2023-03-04T05:19:29;5.10;99.90
33023;DHT22;19390;51.460;5.710;2023-03-04T05:21:55;5.10;99.90
33023;DHT22;19390;51.460;5.710;2023-03-04T05:24:21;5.10;99.90
33023;DHT22;19390;51.460;5.710;2023-03-04T05:26:46;5.10;99.90
33023;DHT22;19390;51.460;5.710;2023-03-04T05:29:12;5.10;99.90
33023;DHT22;19390;51.460;5.710;2023-03-04T05:31:38;5.10;99.90
33023;DHT22;19390;51.460;5.710;2023-03-04T05:34:03;5.10;99.90
33023;DHT22;19390;51.460;5.710;2023-03-04T05:36:29;5.10;99.90
33023;DHT22;19390;51.460;5.710;2023-03-04T05:38:55;5.10;99.90
33023;DHT22;19390;51.460;5.710;2023-03-04T05:41:20;5.10;99.90
33023;DHT22;19390;51.460;5.710;2023-03-04T05:43:48;5.10;99.90
33023;DHT22;19390;51.460;5.710;2023-03-04T05:46:16;5.10;99.90
33023;DHT22;19390;51.460;5.710;2023-03-04T05:48:42;5.10;99.90
33023;DHT22;19390;51.460;5.710;2023-03-04T05:51:09;5.10;99.90
33023;DHT22;19390;51.460;5.710;2023-03-04T05:53:34;5.10;99.90
33023;DHT22;19390;51.460;5.710;2023-03-04T05:56:09;5.10;99.90
33023;DHT22;19390;51.460;5.710;2023-03-04T05:58:35;5.10;99.90
33023;DHT22;19390;51.460;5.710;2023-03-04T06:01:02;5.10;99.90
33023;DHT22;19390;51.460;5.710;2023-03-04T06:03:28;5.10;99.90
33023;DHT22;19390;51.460;5.710;2023-03-04T06:05:53;5.10;99.90
33023;DHT22;19390;51.460;5.710;2023-03-04T06:08:19;5.10;99.90
33023;DHT22;19390;51.460;5.710;2023-03-04T06:10:45;5.10;99.90
33023;DHT22;19390;51.460;5.710;2023-03-04T06:13:11;5.10;99.90
33023;DHT22;19390;51.460;5.710;2023-03-04T06:15:38;5.10;99.90
33023;DHT22;19390;51.460;5.710;2023-03-04T06:18:08;5.10;99.90
33023;DHT22;19390;51.460;5.710;2023-03-04T06:20:34;5.00;99.90
33023;DHT22;19390;51.460;5.710;2023-03-04T06:22:59;5.00;99.90
33023;DHT22;19390;51.460;5.710;2023-03-04T06:25:25;5.10;99.90
33023;DHT22;19390;51.460;5.710;2023-03-04T06:27:51;5.10;99.90
33023;DHT22;19390;51.460;5.710;2023-03-04T06:30:17;5.00;99.90
33023;DHT22;19390;51.460;5.710;2023-03-04T06:32:43;5.10;99.90
33023;DHT22;19390;51.460;5.710;2023-03-04T06:35:10;5.10;99.90
33023;DHT22;19390;51.460;5.710;2023-03-04T06:37:36;5.00;99.90
33023;DHT22;19390;51.460;5.710;2023-03-04T06:40:02;5.00;99.90
33023;DHT22;19390;51.460;5.710;2023-03-04T06:42:28;5.00;99.90
33023;DHT22;19390;51.460;5.710;2023-03-04T06:44:54;5.00;99.90
33023;DHT22;19390;51.460;5.710;2023-03-04T06:47:20;5.00;99.90
33023;DHT22;19390;51.460;5.710;2023-03-04T06:49:45;4.90;99.90
33023;DHT22;19390;51.460;5.710;2023-03-04T06:52:11;4.90;99.90
33023;DHT22;19390;51.460;5.710;2023-03-04T06:54:38;4.90;99.90
33023;DHT22;19390;51.460;5.710;2023-03-04T06:57:03;5.00;99.90
33023;DHT22;19390;51.460;5.710;2023-03-04T06:59:29;5.00;99.90
33023;DHT22;19390;51.460;5.710;2023-03-04T07:01:54;5.00;99.90
33023;DHT22;19390;51.460;5.710;2023-03-04T07:04:20;4.90;99.90
33023;DHT22;19390;51.460;5.710;2023-03-04T07:06:48;5.00;99.90
33023;DHT22;19390;51.460;5.710;2023-03-04T07:09:13;4.90;99.90
33023;DHT22;19390;51.460;5.710;2023-03-04T07:11:39;4.90;99.90
33023;DHT22;19390;51.460;5.710;2023-03-04T07:14:05;5.00;99.90
33023;DHT22;19390;51.460;5.710;2023-03-04T07:16:31;5.00;99.90
33023;DHT22;19390;51.460;5.710;2023-03-04T07:18:56;5.00;99.90
33023;DHT22;19390;51.460;5.710;2023-03-04T07:21:22;5.00;99.90
33023;DHT22;19390;51.460;5.710;2023-03-04T07:23:48;5.10;99.90
33023;DHT22;19390;51.460;5.710;2023-03-04T07:26:14;5.10;99.90
33023;DHT22;19390;51.460;5.710;2023-03-04T07:28:40;5.10;99.90
33023;DHT22;19390;51.460;5.710;2023-03-04T07:31:12;5.20;99.90
33023;DHT22;19390;51.460;5.710;2023-03-04T07:33:42;5.20;99.90
33023;DHT22;19390;51.460;5.710;2023-03-04T07:36:08;5.20;99.90
33023;DHT22;19390;51.460;5.710;2023-03-04T07:38:34;5.30;99.90
33023;DHT22;19390;51.460;5.710;2023-03-04T07:41:00;5.30;99.90
33023;DHT22;19390;51.460;5.710;2023-03-04T07:43:25;5.30;99.90
33023;DHT22;19390;51.460;5.710;2023-03-04T07:45:51;5.30;99.90
33023;DHT22;19390;51.460;5.710;2023-03-04T07:48:17;5.40;99.90
33023;DHT22;19390;51.460;5.710;2023-03-04T07:50:43;5.40;99.90
33023;DHT22;19390;51.460;5.710;2023-03-04T07:53:08;5.30;99.90
33023;DHT22;19390;51.460;5.710;2023-03-04T07:55:34;5.40;99.90
33023;DHT22;19390;51.460;5.710;2023-03-04T07:57:59;5.40;99.90
33023;DHT22;19390;51.460;5.710;2023-03-04T08:00:25;5.40;99.90
33023;DHT22;19390;51.460;5.710;2023-03-04T08:02:51;5.50;99.90
33023;DHT22;19390;51.460;5.710;2023-03-04T08:05:16;5.50;99.90
33023;DHT22;19390;51.460;5.710;2023-03-04T08:07:42;5.50;99.90
33023;DHT22;19390;51.460;5.710;2023-03-04T08:10:08;5.60;99.90
33023;DHT22;19390;51.460;5.710;2023-03-04T08:12:35;5.70;99.90
33023;DHT22;19390;51.460;5.710;2023-03-04T08:15:01;5.80;99.90
33023;DHT22;19390;51.460;5.710;2023-03-04T08:17:27;5.80;99.90
33023;DHT22;19390;51.460;5.710;2023-03-04T08:19:54;5.90;99.90
33023;DHT22;19390;51.460;5.710;2023-03-04T08:22:20;6.00;99.90
33023;DHT22;19390;51.460;5.710;2023-03-04T08:24:45;5.90;99.90
33023;DHT22;19390;51.460;5.710;2023-03-04T08:27:11;6.00;99.90
33023;DHT22;19390;51.460;5.710;2023-03-04T08:29:36;6.40;99.90
33023;DHT22;19390;51.460;5.710;2023-03-04T08:32:02;6.30;99.90
33023;DHT22;19390;51.460;5.710;2023-03-04T08:34:28;6.80;99.90
33023;DHT22;19390;51.460;5.710;2023-03-04T08:36:53;7.10;99.90
33023;DHT22;19390;51.460;5.710;2023-03-04T08:39:19;7.00;99.90
33023;DHT22;19390;51.460;5.710;2023-03-04T08:41:45;7.20;99.90
33023;DHT22;19390;51.460;5.710;2023-03-04T08:44:11;8.10;99.90
33023;DHT22;19390;51.460;5.710;2023-03-04T08:46:39;8.40;99.90
33023;DHT22;19390;51.460;5.710;2023-03-04T08:49:06;9.30;99.90
33023;DHT22;19390;51.460;5.710;2023-03-04T08:51:31;10.00;99.90
33023;DHT22;19390;51.460;5.710;2023-03-04T08:53:57;11.00;99.90
33023;DHT22;19390;51.460;5.710;2023-03-04T08:56:23;10.80;99.90
33023;DHT22;19390;51.460;5.710;2023-03-04T08:58:49;11.90;39.30
33023;DHT22;19390;51.460;5.710;2023-03-04T09:01:14;11.50;1.00
33023;DHT22;19390;51.460;5.710;2023-03-04T09:03:41;9.40;31.70
33023;DHT22;19390;51.460;5.710;2023-03-04T09:06:08;8.50;99.90
33023;DHT22;19390;51.460;5.710;2023-03-04T09:08:35;7.90;99.90
33023;DHT22;19390;51.460;5.710;2023-03-04T09:11:01;8.50;99.90
33023;DHT22;19390;51.460;5.710;2023-03-04T09:13:28;8.60;99.90
33023;DHT22;19390;51.460;5.710;2023-03-04T09:15:54;8.50;99.90
33023;DHT22;19390;51.460;5.710;2023-03-04T09:18:22;9.20;99.90
33023;DHT22;19390;51.460;5.710;2023-03-04T09:20:48;8.20;99.90
33023;DHT22;19390;51.460;5.710;2023-03-04T09:23:14;8.10;99.90
33023;DHT22;19390;51.460;5.710;2023-03-04T09:25:43;8.80;99.90
33023;DHT22;19390;51.460;5.710;2023-03-04T09:28:11;8.80;99.90
33023;DHT22;19390;51.460;5.710;2023-03-04T09:30:37;8.40;99.90
33023;DHT22;19390;51.460;5.710;2023-03-04T09:33:02;8.30;99.90
33023;DHT22;19390;51.460;5.710;2023-03-04T09:35:28;8.90;99.90
33023;DHT22;19390;51.460;5.710;2023-03-04T09:37:57;9.40;99.90
33023;DHT22;19390;51.460;5.710;2023-03-04T09:40:37;9.40;99.90
33023;DHT22;19390;51.460;5.710;2023-03-04T09:43:04;9.00;99.90
33023;DHT22;19390;51.460;5.710;2023-03-04T09:45:42;8.20;99.90
33023;DHT22;19390;51.460;5.710;2023-03-04T09:48:13;8.00;99.90
33023;DHT22;19390;51.460;5.710;2023-03-04T09:53:33;8.90;99.90
33023;DHT22;19390;51.460;5.710;2023-03-04T09:56:01;9.30;99.90
33023;DHT22;19390;51.460;5.710;2023-03-04T09:58:48;9.40;99.90
33023;DHT22;19390;51.460;5.710;2023-03-04T10:01:27;9.10;99.90
33023;DHT22;19390;51.460;5.710;2023-03-04T10:03:58;9.40;99.90
33023;DHT22;19390;51.460;5.710;2023-03-04T10:06:26;11.30;1.00
33023;DHT22;19390;51.460;5.710;2023-03-04T10:09:02;10.40;1.00
33023;DHT22;19390;51.460;5.710;2023-03-04T10:11:41;9.30;99.90
33023;DHT22;19390;51.460;5.710;2023-03-04T10:14:26;9.50;1.00
33023;DHT22;19390;51.460;5.710;2023-03-04T10:16:59;11.20;1.00
33023;DHT22;19390;51.460;5.710;2023-03-04T10:24:57;11.30;1.00
33023;DHT22;19390;51.460;5.710;2023-03-04T10:27:23;10.20;1.00
33023;DHT22;19390;51.460;5.710;2023-03-04T10:29:50;9.30;1.00
33023;DHT22;19390;51.460;5.710;2023-03-04T10:32:18;8.80;1.00
33023;DHT22;19390;51.460;5.710;2023-03-04T10:34:44;8.40;99.90
33023;DHT22;19390;51.460;5.710;2023-03-04T10:37:10;8.00;99.90
33023;DHT22;19390;51.460;5.710;2023-03-04T10:39:46;8.40;99.90
33023;DHT22;19390;51.460;5.710;2023-03-04T10:44:50;8.20;99.90
33023;DHT22;19390;51.460;5.710;2023-03-04T10:47:17;8.50;99.90
33023;DHT22;19390;51.460;5.710;2023-03-04T10:49:54;8.70;99.90
33023;DHT22;19390;51.460;5.710;2023-03-04T10:52:38;9.30;99.90
33023;DHT22;19390;51.460;5.710;2023-03-04T10:55:26;9.30;99.90
33023;DHT22;19390;51.460;5.710;2023-03-04T10:58:01;9.10;99.90
33023;DHT22;19390;51.460;5.710;2023-03-04T11:00:35;9.00;99.90
33023;DHT22;19390;51.460;5.710;2023-03-04T11:05:48;8.20;99.90
33023;DHT22;19390;51.460;5.710;2023-03-04T11:08:21;8.10;99.90
33023;DHT22;19390;51.460;5.710;2023-03-04T11:10:48;7.90;99.90
33023;DHT22;19390;51.460;5.710;2023-03-04T11:13:20;7.90;99.90
33023;DHT22;19390;51.460;5.710;2023-03-04T11:15:59;8.00;99.90
33023;DHT22;19390;51.460;5.710;2023-03-04T11:18:47;8.10;99.90
33023;DHT22;19390;51.460;5.710;2023-03-04T11:21:21;9.40;99.90
33023;DHT22;19390;51.460;5.710;2023-03-04T11:26:28;10.20;99.90
33023;DHT22;19390;51.460;5.710;2023-03-04T11:31:37;10.80;1.00
33023;DHT22;19390;51.460;5.710;2023-03-04T11:34:07;10.40;1.00
33023;DHT22;19390;51.460;5.710;2023-03-04T11:36:54;9.90;1.00
33023;DHT22;19390;51.460;5.710;2023-03-04T11:39:46;9.60;99.90
33023;DHT22;19390;51.460;5.710;2023-03-04T11:45:15;8.60;99.90
33023;DHT22;19390;51.460;5.710;2023-03-04T11:50:37;9.10;99.90
33023;DHT22;19390;51.460;5.710;2023-03-04T11:56:14;9.70;99.90
33023;DHT22;19390;51.460;5.710;2023-03-04T12:06:39;10.50;99.90
33023;DHT22;19390;51.460;5.710;2023-03-04T12:17:08;10.60;1.00
33023;DHT22;19390;51.460;5.710;2023-03-04T12:22:44;9.80;99.90
33023;DHT22;19390;51.460;5.710;2023-03-04T12:30:37;9.10;99.90
33023;DHT22;19390;51.460;5.710;2023-03-04T12:44:11;9.60;99.90
33023;DHT22;19390;51.460;5.710;2023-03-04T12:47:12;9.50;99.90
33023;DHT22;19390;51.460;5.710;2023-03-04T12:52:47;8.70;99.90
33023;DHT22;19390;51.460;5.710;2023-03-04T12:55:20;8.90;99.90
33023;DHT22;19390;51.460;5.710;2023-03-04T12:57:48;8.80;99.90
33023;DHT22;19390;51.460;5.710;2023-03-04T13:05:46;9.10;99.90
33023;DHT22;19390;51.460;5.710;2023-03-04T13:16:46;8.80;99.90
33023;DHT22;19390;51.460;5.710;2023-03-04T13:24:55;8.80;99.90
33023;DHT22;19390;51.460;5.710;2023-03-04T13:27:47;8.90;99.90
33023;DHT22;19390;51.460;5.710;2023-03-04T13:51:41;8.20;99.90
33023;DHT22;19390;51.460;5.710;2023-03-04T13:56:55;7.90;99.90
33023;DHT22;19390;51.460;5.710;2023-03-04T14:00:11;7.90;99.90
33023;DHT22;19390;51.460;5.710;2023-03-04T14:02:36;7.90;99.90
33023;DHT22;19390;51.460;5.710;2023-03-04T14:05:02;7.70;99.90
33023;DHT22;19390;51.460;5.710;2023-03-04T14:07:46;7.70;99.90
33023;DHT22;19390;51.460;5.710;2023-03-04T14:12:48;7.80;99.90
33023;DHT22;19390;51.460;5.710;2023-03-04T14:15:24;7.90;99.90
33023;DHT22;19390;51.460;5.710;2023-03-04T14:17:53;7.90;99.90
33023;DHT22;19390;51.460;5.710;2023-03-04T14:20:26;8.10;99.90
33023;DHT22;19390;51.460;5.710;2023-03-04T14:22:53;8.00;99.90
33023;DHT22;19390;51.460;5.710;2023-03-04T14:25:25;8.10;99.90
33023;DHT22;19390;51.460;5.710;2023-03-04T14:28:08;8.40;99.90
33023;DHT22;19390;51.460;5.710;2023-03-04T14:30:35;8.60;99.90
33023;DHT22;19390;51.460;5.710;2023-03-04T14:33:01;8.80;99.90
33023;DHT22;19390;51.460;5.710;2023-03-04T14:35:31;9.00;99.90
33023;DHT22;19390;51.460;5.710;2023-03-04T14:38:02;9.00;99.90
33023;DHT22;19390;51.460;5.710;2023-03-04T14:40:39;8.90;99.90
33023;DHT22;19390;51.460;5.710;2023-03-04T14:43:12;8.60;99.90
33023;DHT22;19390;51.460;5.710;2023-03-04T14:45:39;8.50;99.90
33023;DHT22;19390;51.460;5.710;2023-03-04T14:48:06;8.60;99.90
33023;DHT22;19390;51.460;5.710;2023-03-04T14:50:33;8.30;99.90
33023;DHT22;19390;51.460;5.710;2023-03-04T14:53:12;8.10;99.90
33023;DHT22;19390;51.460;5.710;2023-03-04T14:55:39;8.10;99.90
33023;DHT22;19390;51.460;5.710;2023-03-04T14:58:26;8.10;99.90
33023;DHT22;19390;51.460;5.710;2023-03-04T15:01:17;8.00;99.90
33023;DHT22;19390;51.460;5.710;2023-03-04T15:04:10;7.90;99.90
33023;DHT22;19390;51.460;5.710;2023-03-04T15:06:38;7.90;99.90
33023;DHT22;19390;51.460;5.710;2023-03-04T15:09:08;7.80;99.90
33023;DHT22;19390;51.460;5.710;2023-03-04T15:11:50;7.90;99.90
33023;DHT22;19390;51.460;5.710;2023-03-04T15:22:35;7.80;99.90
33023;DHT22;19390;51.460;5.710;2023-03-04T15:25:02;7.80;99.90
33023;DHT22;19390;51.460;5.710;2023-03-04T15:27:30;7.90;99.90
33023;DHT22;19390;51.460;5.710;2023-03-04T15:29:58;8.10;99.90
33023;DHT22;19390;51.460;5.710;2023-03-04T15:32:25;8.10;99.90
33023;DHT22;19390;51.460;5.710;2023-03-04T15:34:51;8.40;99.90
33023;DHT22;19390;51.460;5.710;2023-03-04T15:37:21;8.30;99.90
33023;DHT22;19390;51.460;5.710;2023-03-04T15:39:48;8.00;99.90
33023;DHT22;19390;51.460;5.710;2023-03-04T15:42:13;7.90;99.90
33023;DHT22;19390;51.460;5.710;2023-03-04T15:44:39;7.80;99.90
33023;DHT22;19390;51.460;5.710;2023-03-04T15:47:05;7.70;99.90
33023;DHT22;19390;51.460;5.710;2023-03-04T15:49:33;7.80;99.90
33023;DHT22;19390;51.460;5.710;2023-03-04T15:52:02;7.60;99.90
33023;DHT22;19390;51.460;5.710;2023-03-04T15:54:29;7.60;99.90
33023;DHT22;19390;51.460;5.710;2023-03-04T15:56:54;7.60;99.90
33023;DHT22;19390;51.460;5.710;2023-03-04T15:59:22;7.50;99.90
33023;DHT22;19390;51.460;5.710;2023-03-04T16:01:49;7.60;99.90
33023;DHT22;19390;51.460;5.710;2023-03-04T16:04:15;7.50;99.90
33023;DHT22;19390;51.460;5.710;2023-03-04T16:06:43;7.40;99.90
33023;DHT22;19390;51.460;5.710;2023-03-04T16:09:14;7.40;99.90
33023;DHT22;19390;51.460;5.710;2023-03-04T16:11:43;7.30;99.90
33023;DHT22;19390;51.460;5.710;2023-03-04T16:14:15;7.40;99.90
33023;DHT22;19390;51.460;5.710;2023-03-04T16:16:41;7.40;99.90
33023;DHT22;19390;51.460;5.710;2023-03-04T16:19:08;7.60;99.90
33023;DHT22;19390;51.460;5.710;2023-03-04T16:21:34;7.60;99.90
33023;DHT22;19390;51.460;5.710;2023-03-04T16:23:59;8.00;99.90
33023;DHT22;19390;51.460;5.710;2023-03-04T16:26:26;8.10;99.90
33023;DHT22;19390;51.460;5.710;2023-03-04T16:28:52;7.60;99.90
33023;DHT22;19390;51.460;5.710;2023-03-04T16:31:19;8.00;99.90
33023;DHT22;19390;51.460;5.710;2023-03-04T16:33:45;7.80;99.90
33023;DHT22;19390;51.460;5.710;2023-03-04T16:38:39;8.00;99.90
33023;DHT22;19390;51.460;5.710;2023-03-04T16:41:09;7.90;99.90
33023;DHT22;19390;51.460;5.710;2023-03-04T16:43:38;7.60;99.90
33023;DHT22;19390;51.460;5.710;2023-03-04T16:46:04;7.50;99.90
33023;DHT22;19390;51.460;5.710;2023-03-04T16:48:30;7.30;99.90
33023;DHT22;19390;51.460;5.710;2023-03-04T16:50:55;7.10;99.90
33023;DHT22;19390;51.460;5.710;2023-03-04T16:53:37;7.10;99.90
33023;DHT22;19390;51.460;5.710;2023-03-04T16:56:06;7.00;99.90
33023;DHT22;19390;51.460;5.710;2023-03-04T16:58:32;6.90;99.90
33023;DHT22;19390;51.460;5.710;2023-03-04T17:00:58;6.90;99.90
33023;DHT22;19390;51.460;5.710;2023-03-04T17:03:25;6.80;99.90
33023;DHT22;19390;51.460;5.710;2023-03-04T17:05:50;6.90;99.90
33023;DHT22;19390;51.460;5.710;2023-03-04T17:08:16;6.80;99.90
33023;DHT22;19390;51.460;5.710;2023-03-04T17:10:42;6.80;99.90
33023;DHT22;19390;51.460;5.710;2023-03-04T17:13:07;6.80;99.90
33023;DHT22;19390;51.460;5.710;2023-03-04T17:15:33;6.80;99.90
33023;DHT22;19390;51.460;5.710;2023-03-04T17:17:58;6.80;99.90
33023;DHT22;19390;51.460;5.710;2023-03-04T17:20:24;6.70;99.90
33023;DHT22;19390;51.460;5.710;2023-03-04T17:22:52;6.70;99.90
33023;DHT22;19390;51.460;5.710;2023-03-04T17:25:17;6.70;99.90
33023;DHT22;19390;51.460;5.710;2023-03-04T17:27:43;6.70;99.90
33023;DHT22;19390;51.460;5.710;2023-03-04T17:30:10;6.70;99.90
33023;DHT22;19390;51.460;5.710;2023-03-04T17:32:37;6.70;99.90
33023;DHT22;19390;51.460;5.710;2023-03-04T17:35:05;6.70;99.90
33023;DHT22;19390;51.460;5.710;2023-03-04T17:37:31;6.70;99.90
33023;DHT22;19390;51.460;5.710;2023-03-04T17:39:57;6.70;99.90
33023;DHT22;19390;51.460;5.710;2023-03-04T17:42:22;6.60;99.90
33023;DHT22;19390;51.460;5.710;2023-03-04T17:44:48;6.60;99.90
33023;DHT22;19390;51.460;5.710;2023-03-04T17:47:14;6.60;99.90
33023;DHT22;19390;51.460;5.710;2023-03-04T17:49:40;6.60;99.90
33023;DHT22;19390;51.460;5.710;2023-03-04T17:52:06;6.60;99.90
33023;DHT22;19390;51.460;5.710;2023-03-04T17:54:32;6.60;99.90
33023;DHT22;19390;51.460;5.710;2023-03-04T17:56:57;6.60;99.90
33023;DHT22;19390;51.460;5.710;2023-03-04T17:59:23;6.50;99.90
33023;DHT22;19390;51.460;5.710;2023-03-04T18:01:49;6.50;99.90
33023;DHT22;19390;51.460;5.710;2023-03-04T18:04:15;6.50;99.90
33023;DHT22;19390;51.460;5.710;2023-03-04T18:06:41;6.50;99.90